sensor_id;sensor_type;location;lat;lon;timestamp;pressure;altitude;pressure_sealevel;temperature;humidity
66762;BME280;53672;48.176;16.338;2023-06-14T00:04:08;98920.44;;;11.77;67.03
66762;BME280;53672;48.176;16.338;2023-06-14T00:09:09;98924.66;;;11.73;67.64
66762;BME280;53672;48.176;16.338;2023-06-14T00:14:09;98926.78;;;11.77;66.74
66762;BME280;53672;48.176;16.338;2023-06-14T00:19:11;98923.16;;;11.64;67.17
66762;BME280;53672;48.176;16.338;2023-06-14T00:24:12;98919.34;;;11.58;67.94
66762;BME280;53672;48.176;16.338;2023-06-14T00:29:12;98929.91;;;11.55;67.72
66762;BME280;53672;48.176;16.338;2023-06-14T00:34:14;98921.44;;;11.56;67.65
66762;BME280;53672;48.176;16.338;2023-06-14T00:39:14;98922.75;;;11.67;66.69
66762;BME280;53672;48.176;16.338;2023-06-14T00:44:16;98914.13;;;11.83;66.77
66762;BME280;53672;48.176;16.338;2023-06-14T00:49:19;98905.03;;;11.96;65.78
66762;BME280;53672;48.176;16.338;2023-06-14T00:54:20;98911.81;;;11.93;65.88
66762;BME280;53672;48.176;16.338;2023-06-14T00:59:20;98916.44;;;11.93;66.17
66762;BME280;53672;48.176;16.338;2023-06-14T01:04:22;98901.66;;;11.87;66.50
66762;BME280;53672;48.176;16.338;2023-06-14T01:09:27;98902.91;;;11.91;66.61
66762;BME280;53672;48.176;16.338;2023-06-14T01:14:34;98896.41;;;12.05;65.57
66762;BME280;53672;48.176;16.338;2023-06-14T01:19:36;98896.19;;;12.13;65.47
66762;BME280;53672;48.176;16.338;2023-06-14T01:24:38;98895.78;;;12.23;64.77
66762;BME280;53672;48.176;16.338;2023-06-14T01:29:39;98896.00;;;12.21;65.76
66762;BME280;53672;48.176;16.338;2023-06-14T01:34:40;98898.31;;;12.18;65.37
66762;BME280;53672;48.176;16.338;2023-06-14T01:39:43;98896.63;;;12.10;65.99
66762;BME280;53672;48.176;16.338;2023-06-14T01:44:45;98897.66;;;12.09;65.72
66762;BME280;53672;48.176;16.338;2023-06-14T01:49:46;98900.66;;;12.14;65.76
66762;BME280;53672;48.176;16.338;2023-06-14T01:54:48;98895.38;;;12.06;66.25
66762;BME280;53672;48.176;16.338;2023-06-14T01:59:49;98890.66;;;11.94;66.69
66762;BME280;53672;48.176;16.338;2023-06-14T02:04:49;98892.78;;;11.92;66.50
66762;BME280;53672;48.176;16.338;2023-06-14T02:09:51;98894.44;;;11.93;66.65
66762;BME280;53672;48.176;16.338;2023-06-14T02:14:52;98894.25;;;11.88;66.84
66762;BME280;53672;48.176;16.338;2023-06-14T02:19:52;98897.41;;;11.85;66.69
66762;BME280;53672;48.176;16.338;2023-06-14T02:24:54;98901.25;;;11.90;66.54
66762;BME280;53672;48.176;16.338;2023-06-14T02:29:54;98905.25;;;11.94;66.20
66762;BME280;53672;48.176;16.338;2023-06-14T02:34:55;98901.44;;;11.95;66.74
66762;BME280;53672;48.176;16.338;2023-06-14T02:39:58;98906.53;;;11.98;66.90
66762;BME280;53672;48.176;16.338;2023-06-14T02:44:59;98910.75;;;12.01;66.89
66762;BME280;53672;48.176;16.338;2023-06-14T02:50:00;98912.66;;;12.00;66.39
66762;BME280;53672;48.176;16.338;2023-06-14T02:55:02;98905.88;;;11.96;66.52
66762;BME280;53672;48.176;16.338;2023-06-14T03:00:03;98922.81;;;11.93;66.71
66762;BME280;53672;48.176;16.338;2023-06-14T03:05:04;98922.38;;;11.83;67.43
66762;BME280;53672;48.176;16.338;2023-06-14T03:10:07;98921.94;;;11.86;67.25
66762;BME280;53672;48.176;16.338;2023-06-14T03:15:09;98931.66;;;11.82;67.63
66762;BME280;53672;48.176;16.338;2023-06-14T03:20:10;98931.66;;;11.75;67.60
66762;BME280;53672;48.176;16.338;2023-06-14T03:25:12;98922.53;;;11.68;67.96
66762;BME280;53672;48.176;16.338;2023-06-14T03:30:13;98928.25;;;11.60;68.37
66762;BME280;53672;48.176;16.338;2023-06-14T03:35:14;98929.47;;;11.51;68.50
66762;BME280;53672;48.176;16.338;2023-06-14T03:40:18;98939.63;;;11.51;68.86
66762;BME280;53672;48.176;16.338;2023-06-14T03:45:18;98949.72;;;11.37;69.20
66762;BME280;53672;48.176;16.338;2023-06-14T03:50:19;98957.28;;;11.29;70.02
66762;BME280;53672;48.176;16.338;2023-06-14T03:55:21;98971.84;;;11.23;70.10
66762;BME280;53672;48.176;16.338;2023-06-14T04:00:21;98980.31;;;11.28;70.25
66762;BME280;53672;48.176;16.338;2023-06-14T04:05:22;98977.16;;;11.31;70.50
66762;BME280;53672;48.176;16.338;2023-06-14T04:10:24;98980.56;;;11.33;69.91
66762;BME280;53672;48.176;16.338;2023-06-14T04:15:24;98984.75;;;11.29;70.60
66762;BME280;53672;48.176;16.338;2023-06-14T04:20:25;98992.19;;;11.35;69.58
66762;BME280;53672;48.176;16.338;2023-06-14T04:25:27;98997.13;;;11.52;69.34
66762;BME280;53672;48.176;16.338;2023-06-14T04:30:27;98996.44;;;11.91;68.15
66762;BME280;53672;48.176;16.338;2023-06-14T04:35:27;98986.59;;;12.29;67.40
66762;BME280;53672;48.176;16.338;2023-06-14T04:40:29;98999.97;;;12.59;66.36
66762;BME280;53672;48.176;16.338;2023-06-14T04:45:30;99007.16;;;12.79;65.60
66762;BME280;53672;48.176;16.338;2023-06-14T04:50:30;99010.13;;;12.97;64.91
66762;BME280;53672;48.176;16.338;2023-06-14T04:55:32;99017.91;;;13.20;64.32
66762;BME280;53672;48.176;16.338;2023-06-14T05:00:32;99017.88;;;13.53;63.57
66762;BME280;53672;48.176;16.338;2023-06-14T05:05:33;99012.66;;;13.82;62.32
66762;BME280;53672;48.176;16.338;2023-06-14T05:10:35;99012.31;;;14.10;61.47
66762;BME280;53672;48.176;16.338;2023-06-14T05:15:36;99015.81;;;14.30;60.43
66762;BME280;53672;48.176;16.338;2023-06-14T05:20:36;99016.13;;;14.78;59.09
66762;BME280;53672;48.176;16.338;2023-06-14T05:25:38;99022.00;;;15.31;56.57
66762;BME280;53672;48.176;16.338;2023-06-14T05:30:39;99024.13;;;15.72;53.38
66762;BME280;53672;48.176;16.338;2023-06-14T05:35:39;99027.00;;;16.13;51.69
66762;BME280;53672;48.176;16.338;2023-06-14T05:40:41;99019.69;;;16.48;50.22
66762;BME280;53672;48.176;16.338;2023-06-14T05:45:42;99022.88;;;16.63;50.44
66762;BME280;53672;48.176;16.338;2023-06-14T05:50:42;99018.75;;;17.07;49.19
66762;BME280;53672;48.176;16.338;2023-06-14T05:55:44;99023.19;;;17.43;47.68
66762;BME280;53672;48.176;16.338;2023-06-14T06:00:45;99030.94;;;17.41;47.34
66762;BME280;53672;48.176;16.338;2023-06-14T06:05:45;99031.53;;;17.43;47.37
66762;BME280;53672;48.176;16.338;2023-06-14T06:10:47;99035.66;;;17.52;44.53
66762;BME280;53672;48.176;16.338;2023-06-14T06:15:47;99043.25;;;17.68;45.62
66762;BME280;53672;48.176;16.338;2023-06-14T06:20:48;99041.41;;;18.25;42.75
66762;BME280;53672;48.176;16.338;2023-06-14T06:25:50;99045.41;;;18.29;44.89
66762;BME280;53672;48.176;16.338;2023-06-14T06:30:50;99050.06;;;18.52;44.95
66762;BME280;53672;48.176;16.338;2023-06-14T06:35:51;99045.38;;;18.69;42.67
66762;BME280;53672;48.176;16.338;2023-06-14T06:40:52;99050.44;;;18.72;43.64
66762;BME280;53672;48.176;16.338;2023-06-14T06:45:53;99057.47;;;19.08;41.46
66762;BME280;53672;48.176;16.338;2023-06-14T06:50:53;99068.66;;;19.24;41.19
66762;BME280;53672;48.176;16.338;2023-06-14T06:55:55;99063.63;;;18.93;41.45
66762;BME280;53672;48.176;16.338;2023-06-14T07:00:56;99065.50;;;19.21;40.49
66762;BME280;53672;48.176;16.338;2023-06-14T07:05:56;99060.97;;;19.31;40.26
66762;BME280;53672;48.176;16.338;2023-06-14T07:10:58;99060.41;;;19.68;40.25
66762;BME280;53672;48.176;16.338;2023-06-14T07:15:59;99059.72;;;20.16;39.26
66762;BME280;53672;48.176;16.338;2023-06-14T07:21:00;99070.34;;;19.97;39.09
66762;BME280;53672;48.176;16.338;2023-06-14T07:26:02;99071.66;;;20.54;38.68
66762;BME280;53672;48.176;16.338;2023-06-14T07:31:02;99082.66;;;20.88;37.26
66762;BME280;53672;48.176;16.338;2023-06-14T07:36:03;99080.38;;;20.85;38.37
66762;BME280;53672;48.176;16.338;2023-06-14T07:41:05;99082.81;;;20.33;38.13
66762;BME280;53672;48.176;16.338;2023-06-14T07:46:05;99076.97;;;21.04;36.89
66762;BME280;53672;48.176;16.338;2023-06-14T07:51:06;99078.69;;;21.74;36.67
66762;BME280;53672;48.176;16.338;2023-06-14T07:56:08;99085.63;;;22.13;35.70
66762;BME280;53672;48.176;16.338;2023-06-14T08:01:08;99078.94;;;22.76;34.16
66762;BME280;53672;48.176;16.338;2023-06-14T08:06:09;99076.56;;;23.25;33.39
66762;BME280;53672;48.176;16.338;2023-06-14T08:11:11;99084.38;;;23.53;32.80
66762;BME280;53672;48.176;16.338;2023-06-14T08:16:12;99092.47;;;24.20;31.43
66762;BME280;53672;48.176;16.338;2023-06-14T08:21:12;99088.06;;;23.84;31.48
66762;BME280;53672;48.176;16.338;2023-06-14T08:26:14;99086.91;;;24.79;29.82
66762;BME280;53672;48.176;16.338;2023-06-14T08:31:14;99090.38;;;24.61;30.43
66762;BME280;53672;48.176;16.338;2023-06-14T08:36:15;99103.72;;;24.84;28.77
66762;BME280;53672;48.176;16.338;2023-06-14T08:41:21;99096.41;;;24.14;29.67
66762;BME280;53672;48.176;16.338;2023-06-14T08:46:23;99095.63;;;23.68;31.29
66762;BME280;53672;48.176;16.338;2023-06-14T08:51:25;99097.47;;;24.28;31.30
66762;BME280;53672;48.176;16.338;2023-06-14T08:56:28;99104.16;;;24.42;30.08
66762;BME280;53672;48.176;16.338;2023-06-14T09:01:30;99107.09;;;23.97;30.29
66762;BME280;53672;48.176;16.338;2023-06-14T09:06:31;99104.59;;;23.45;31.65
66762;BME280;53672;48.176;16.338;2023-06-14T09:11:32;99104.91;;;24.78;28.91
66762;BME280;53672;48.176;16.338;2023-06-14T09:16:33;99101.97;;;25.81;27.38
66762;BME280;53672;48.176;16.338;2023-06-14T09:21:34;99112.56;;;26.70;25.93
66762;BME280;53672;48.176;16.338;2023-06-14T09:26:38;99103.84;;;26.90;25.55
66762;BME280;53672;48.176;16.338;2023-06-14T09:31:40;99102.56;;;26.59;26.33
66762;BME280;53672;48.176;16.338;2023-06-14T09:36:40;99100.25;;;28.83;22.72
66762;BME280;53672;48.176;16.338;2023-06-14T09:41:43;99095.88;;;30.06;20.37
66762;BME280;53672;48.176;16.338;2023-06-14T09:46:44;99091.59;;;30.79;19.99
66762;BME280;53672;48.176;16.338;2023-06-14T09:51:45;99085.56;;;29.44;21.05
66762;BME280;53672;48.176;16.338;2023-06-14T09:56:51;99089.00;;;30.29;20.16
66762;BME280;53672;48.176;16.338;2023-06-14T10:01:53;99087.56;;;32.51;17.46
66762;BME280;53672;48.176;16.338;2023-06-14T10:06:58;99085.97;;;33.08;18.00
66762;BME280;53672;48.176;16.338;2023-06-14T10:12:02;99079.56;;;34.72;14.42
66762;BME280;53672;48.176;16.338;2023-06-14T10:17:06;99079.69;;;31.33;17.47
66762;BME280;53672;48.176;16.338;2023-06-14T10:22:11;99064.81;;;29.13;20.86
66762;BME280;53672;48.176;16.338;2023-06-14T10:27:15;99071.88;;;32.45;17.46
66762;BME280;53672;48.176;16.338;2023-06-14T10:32:15;99058.56;;;34.19;15.82
66762;BME280;53672;48.176;16.338;2023-06-14T10:37:16;99074.47;;;35.26;14.09
66762;BME280;53672;48.176;16.338;2023-06-14T10:42:17;99066.34;;;31.42;18.22
66762;BME280;53672;48.176;16.338;2023-06-14T10:47:26;99062.03;;;31.36;17.89
66762;BME280;53672;48.176;16.338;2023-06-14T10:52:28;99060.63;;;29.90;19.85
66762;BME280;53672;48.176;16.338;2023-06-14T10:57:30;99062.88;;;28.86;20.81
66762;BME280;53672;48.176;16.338;2023-06-14T11:02:46;99055.78;;;28.61;21.00
66762;BME280;53672;48.176;16.338;2023-06-14T11:07:58;99055.28;;;26.08;23.41
66762;BME280;53672;48.176;16.338;2023-06-14T11:13:00;99051.69;;;28.67;19.39
66762;BME280;53672;48.176;16.338;2023-06-14T11:18:01;99041.16;;;26.13;23.88
66762;BME280;53672;48.176;16.338;2023-06-14T11:23:02;99041.81;;;25.43;25.34
66762;BME280;53672;48.176;16.338;2023-06-14T11:28:04;99055.75;;;24.80;25.39
66762;BME280;53672;48.176;16.338;2023-06-14T11:33:09;99042.44;;;25.40;25.38
66762;BME280;53672;48.176;16.338;2023-06-14T11:38:10;99040.78;;;31.25;18.69
66762;BME280;53672;48.176;16.338;2023-06-14T11:43:12;99036.84;;;27.75;23.15
66762;BME280;53672;48.176;16.338;2023-06-14T11:48:12;99039.50;;;27.34;23.32
66762;BME280;53672;48.176;16.338;2023-06-14T11:53:13;99027.72;;;26.53;25.08
66762;BME280;53672;48.176;16.338;2023-06-14T11:58:15;99032.75;;;24.73;27.54
66762;BME280;53672;48.176;16.338;2023-06-14T12:03:16;99030.22;;;24.08;28.49
66762;BME280;53672;48.176;16.338;2023-06-14T12:08:16;99025.91;;;24.89;26.93
66762;BME280;53672;48.176;16.338;2023-06-14T12:13:18;99030.56;;;23.86;28.37
66762;BME280;53672;48.176;16.338;2023-06-14T12:18:19;99028.09;;;23.19;29.62
66762;BME280;53672;48.176;16.338;2023-06-14T12:23:19;99026.88;;;22.65;30.56
66762;BME280;53672;48.176;16.338;2023-06-14T12:28:21;99020.66;;;22.48;30.30
66762;BME280;53672;48.176;16.338;2023-06-14T12:33:22;99023.75;;;22.51;31.19
66762;BME280;53672;48.176;16.338;2023-06-14T12:38:22;99013.50;;;22.10;31.02
66762;BME280;53672;48.176;16.338;2023-06-14T12:43:24;99026.22;;;21.86;32.24
66762;BME280;53672;48.176;16.338;2023-06-14T12:48:24;99016.97;;;21.38;33.23
66762;BME280;53672;48.176;16.338;2023-06-14T12:53:25;99017.72;;;21.29;33.71
66762;BME280;53672;48.176;16.338;2023-06-14T12:58:27;99016.25;;;21.21;34.04
66762;BME280;53672;48.176;16.338;2023-06-14T13:03:27;99007.47;;;21.08;33.40
66762;BME280;53672;48.176;16.338;2023-06-14T13:08:28;99015.31;;;21.84;33.15
66762;BME280;53672;48.176;16.338;2023-06-14T13:13:30;99020.72;;;22.78;31.28
66762;BME280;53672;48.176;16.338;2023-06-14T13:18:30;99021.63;;;23.19;30.70
66762;BME280;53672;48.176;16.338;2023-06-14T13:23:31;99017.44;;;23.51;30.80
66762;BME280;53672;48.176;16.338;2023-06-14T13:28:32;99010.66;;;23.78;29.50
66762;BME280;53672;48.176;16.338;2023-06-14T13:33:33;99018.69;;;24.14;29.69
66762;BME280;53672;48.176;16.338;2023-06-14T13:38:33;99004.50;;;23.76;30.36
66762;BME280;53672;48.176;16.338;2023-06-14T13:43:35;99003.13;;;23.58;31.09
66762;BME280;53672;48.176;16.338;2023-06-14T13:48:36;99010.34;;;23.89;30.35
66762;BME280;53672;48.176;16.338;2023-06-14T13:53:36;99000.06;;;23.49;30.82
66762;BME280;53672;48.176;16.338;2023-06-14T13:58:38;99011.00;;;23.06;31.78
66762;BME280;53672;48.176;16.338;2023-06-14T14:03:39;99001.69;;;22.80;31.16
66762;BME280;53672;48.176;16.338;2023-06-14T14:08:39;98998.44;;;22.21;33.10
66762;BME280;53672;48.176;16.338;2023-06-14T14:13:41;98995.38;;;22.28;33.79
66762;BME280;53672;48.176;16.338;2023-06-14T14:18:42;99000.69;;;22.29;33.69
66762;BME280;53672;48.176;16.338;2023-06-14T14:23:42;98986.97;;;22.12;33.30
66762;BME280;53672;48.176;16.338;2023-06-14T14:28:44;98991.94;;;22.10;32.77
66762;BME280;53672;48.176;16.338;2023-06-14T14:33:45;98984.28;;;22.48;31.93
66762;BME280;53672;48.176;16.338;2023-06-14T14:38:45;98985.16;;;22.58;31.90
66762;BME280;53672;48.176;16.338;2023-06-14T14:43:47;98990.47;;;22.70;31.39
66762;BME280;53672;48.176;16.338;2023-06-14T14:48:48;98989.22;;;22.26;32.70
66762;BME280;53672;48.176;16.338;2023-06-14T14:53:48;98983.75;;;22.56;31.67
66762;BME280;53672;48.176;16.338;2023-06-14T14:58:50;98990.19;;;22.61;32.48
66762;BME280;53672;48.176;16.338;2023-06-14T15:03:50;98993.88;;;22.92;31.26
66762;BME280;53672;48.176;16.338;2023-06-14T15:08:51;98989.34;;;22.66;32.44
66762;BME280;53672;48.176;16.338;2023-06-14T15:13:53;98992.41;;;22.54;32.12
66762;BME280;53672;48.176;16.338;2023-06-14T15:18:53;98985.66;;;22.40;31.22
66762;BME280;53672;48.176;16.338;2023-06-14T15:23:54;98993.00;;;21.94;32.39
66762;BME280;53672;48.176;16.338;2023-06-14T15:28:56;98989.91;;;21.91;32.38
66762;BME280;53672;48.176;16.338;2023-06-14T15:33:56;98989.41;;;21.52;32.85
66762;BME280;53672;48.176;16.338;2023-06-14T15:38:57;98989.41;;;21.52;32.66
66762;BME280;53672;48.176;16.338;2023-06-14T15:43:58;98986.28;;;21.43;32.92
66762;BME280;53672;48.176;16.338;2023-06-14T15:48:59;98983.19;;;21.45;32.79
66762;BME280;53672;48.176;16.338;2023-06-14T15:53:59;98994.69;;;21.54;32.33
66762;BME280;53672;48.176;16.338;2023-06-14T15:59:01;98987.03;;;21.34;32.31
66762;BME280;53672;48.176;16.338;2023-06-14T16:04:02;98981.22;;;21.04;32.64
66762;BME280;53672;48.176;16.338;2023-06-14T16:09:02;98989.53;;;20.99;32.65
66762;BME280;53672;48.176;16.338;2023-06-14T16:14:05;98994.06;;;20.78;33.36
66762;BME280;53672;48.176;16.338;2023-06-14T16:19:05;99000.78;;;20.77;34.04
66762;BME280;53672;48.176;16.338;2023-06-14T16:24:06;99003.72;;;20.65;34.45
66762;BME280;53672;48.176;16.338;2023-06-14T16:29:08;99005.97;;;20.68;33.92
66762;BME280;53672;48.176;16.338;2023-06-14T16:34:09;99000.16;;;20.70;34.22
66762;BME280;53672;48.176;16.338;2023-06-14T16:39:09;99012.75;;;20.77;36.64
66762;BME280;53672;48.176;16.338;2023-06-14T16:44:11;99015.31;;;20.79;39.88
66762;BME280;53672;48.176;16.338;2023-06-14T16:49:12;99021.81;;;20.63;40.16
66762;BME280;53672;48.176;16.338;2023-06-14T16:54:12;99038.56;;;20.63;40.63
66762;BME280;53672;48.176;16.338;2023-06-14T16:59:14;99050.66;;;20.47;40.85
66762;BME280;53672;48.176;16.338;2023-06-14T17:04:14;99053.00;;;20.33;41.46
66762;BME280;53672;48.176;16.338;2023-06-14T17:09:15;99046.06;;;20.36;41.69
66762;BME280;53672;48.176;16.338;2023-06-14T17:14:17;99061.94;;;20.35;39.76
66762;BME280;53672;48.176;16.338;2023-06-14T17:19:17;99068.09;;;20.16;39.71
66762;BME280;53672;48.176;16.338;2023-06-14T17:24:18;99072.28;;;19.96;40.81
66762;BME280;53672;48.176;16.338;2023-06-14T17:29:19;99084.81;;;19.77;41.75
66762;BME280;53672;48.176;16.338;2023-06-14T17:34:20;99087.19;;;19.69;41.10
66762;BME280;53672;48.176;16.338;2023-06-14T17:39:20;99089.22;;;19.57;41.88
66762;BME280;53672;48.176;16.338;2023-06-14T17:44:22;99103.00;;;19.47;42.21
66762;BME280;53672;48.176;16.338;2023-06-14T17:49:23;99096.06;;;19.32;41.94
66762;BME280;53672;48.176;16.338;2023-06-14T17:54:23;99107.25;;;19.21;41.82
66762;BME280;53672;48.176;16.338;2023-06-14T17:59:25;99105.97;;;19.12;41.68
66762;BME280;53672;48.176;16.338;2023-06-14T18:04:26;99104.88;;;18.96;42.40
66762;BME280;53672;48.176;16.338;2023-06-14T18:09:26;99108.19;;;18.82;43.28
66762;BME280;53672;48.176;16.338;2023-06-14T18:14:28;99118.88;;;18.73;43.61
66762;BME280;53672;48.176;16.338;2023-06-14T18:19:29;99114.94;;;18.57;44.00
66762;BME280;53672;48.176;16.338;2023-06-14T18:24:29;99121.16;;;18.48;44.94
66762;BME280;53672;48.176;16.338;2023-06-14T18:29:31;99125.03;;;18.35;45.36
66762;BME280;53672;48.176;16.338;2023-06-14T18:34:31;99134.34;;;18.29;45.71
66762;BME280;53672;48.176;16.338;2023-06-14T18:39:32;99138.81;;;18.19;45.85
66762;BME280;53672;48.176;16.338;2023-06-14T18:44:34;99141.13;;;18.10;46.30
66762;BME280;53672;48.176;16.338;2023-06-14T18:49:35;99143.44;;;18.01;46.47
66762;BME280;53672;48.176;16.338;2023-06-14T18:54:35;99145.75;;;17.93;46.12
66762;BME280;53672;48.176;16.338;2023-06-14T18:59:37;99151.53;;;17.80;46.16
66762;BME280;53672;48.176;16.338;2023-06-14T19:04:38;99161.81;;;17.68;46.65
66762;BME280;53672;48.176;16.338;2023-06-14T19:09:38;99173.38;;;17.53;47.29
66762;BME280;53672;48.176;16.338;2023-06-14T19:14:40;99169.69;;;17.41;47.42
66762;BME280;53672;48.176;16.338;2023-06-14T19:19:40;99179.91;;;17.29;47.66
66762;BME280;53672;48.176;16.338;2023-06-14T19:24:41;99190.28;;;17.22;48.15
66762;BME280;53672;48.176;16.338;2023-06-14T19:29:43;99184.06;;;17.08;48.08
66762;BME280;53672;48.176;16.338;2023-06-14T19:34:43;99194.88;;;16.98;48.77
66762;BME280;53672;48.176;16.338;2023-06-14T19:39:44;99203.00;;;16.82;48.97
66762;BME280;53672;48.176;16.338;2023-06-14T19:44:46;99201.28;;;16.69;49.78
66762;BME280;53672;48.176;16.338;2023-06-14T19:49:46;99210.22;;;16.53;50.17
66762;BME280;53672;48.176;16.338;2023-06-14T19:54:47;99227.25;;;16.50;50.21
66762;BME280;53672;48.176;16.338;2023-06-14T19:59:49;99220.72;;;16.44;50.40
66762;BME280;53672;48.176;16.338;2023-06-14T20:04:49;99231.72;;;16.33;50.85
66762;BME280;53672;48.176;16.338;2023-06-14T20:09:49;99238.88;;;16.22;51.66
66762;BME280;53672;48.176;16.338;2023-06-14T20:14:51;99228.78;;;16.10;52.60
66762;BME280;53672;48.176;16.338;2023-06-14T20:19:52;99229.75;;;15.97;54.03
66762;BME280;53672;48.176;16.338;2023-06-14T20:24:52;99227.72;;;15.86;55.36
66762;BME280;53672;48.176;16.338;2023-06-14T20:29:54;99233.59;;;15.71;56.25
66762;BME280;53672;48.176;16.338;2023-06-14T20:34:55;99224.97;;;15.61;56.75
66762;BME280;53672;48.176;16.338;2023-06-14T20:39:56;99215.91;;;15.48;57.69
66762;BME280;53672;48.176;16.338;2023-06-14T20:44:58;99227.50;;;15.32;59.10
66762;BME280;53672;48.176;16.338;2023-06-14T20:49:58;99228.88;;;15.16;59.30
66762;BME280;53672;48.176;16.338;2023-06-14T20:54:59;99222.84;;;15.25;59.27
66762;BME280;53672;48.176;16.338;2023-06-14T21:00:01;99216.88;;;15.29;59.41
66762;BME280;53672;48.176;16.338;2023-06-14T21:05:02;99212.88;;;15.24;59.41
66762;BME280;53672;48.176;16.338;2023-06-14T21:10:04;99213.91;;;14.99;60.48
66762;BME280;53672;48.176;16.338;2023-06-14T21:15:07;99215.94;;;14.79;61.01
66762;BME280;53672;48.176;16.338;2023-06-14T21:20:08;99216.03;;;14.52;62.00
66762;BME280;53672;48.176;16.338;2023-06-14T21:25:09;99208.84;;;14.32;62.43
66762;BME280;53672;48.176;16.338;2023-06-14T21:30:15;99224.22;;;14.15;63.01
66762;BME280;53672;48.176;16.338;2023-06-14T21:35:16;99222.28;;;14.09;62.88
66762;BME280;53672;48.176;16.338;2023-06-14T21:40:17;99214.28;;;13.94;63.40
66762;BME280;53672;48.176;16.338;2023-06-14T21:45:18;99214.50;;;13.79;64.34
66762;BME280;53672;48.176;16.338;2023-06-14T21:50:19;99217.66;;;13.76;64.44
66762;BME280;53672;48.176;16.338;2023-06-14T21:55:19;99210.91;;;13.59;65.51
66762;BME280;53672;48.176;16.338;2023-06-14T22:00:21;99211.53;;;13.42;66.46
66762;BME280;53672;48.176;16.338;2023-06-14T22:05:22;99207.72;;;13.30;67.44
66762;BME280;53672;48.176;16.338;2023-06-14T22:10:22;99211.91;;;13.19;67.66
66762;BME280;53672;48.176;16.338;2023-06-14T22:15:24;99217.41;;;13.06;67.86
66762;BME280;53672;48.176;16.338;2023-06-14T22:20:25;99223.75;;;12.93;68.27
66762;BME280;53672;48.176;16.338;2023-06-14T22:25:25;99223.06;;;12.85;68.36
66762;BME280;53672;48.176;16.338;2023-06-14T22:30:27;99216.91;;;12.76;69.05
66762;BME280;53672;48.176;16.338;2023-06-14T22:35:28;99220.66;;;12.62;69.73
66762;BME280;53672;48.176;16.338;2023-06-14T22:40:28;99234.19;;;12.57;70.37
66762;BME280;53672;48.176;16.338;2023-06-14T22:45:30;99223.34;;;12.42;70.54
66762;BME280;53672;48.176;16.338;2023-06-14T22:50:31;99218.25;;;12.39;70.69
66762;BME280;53672;48.176;16.338;2023-06-14T22:55:31;99226.88;;;12.30;71.07
66762;BME280;53672;48.176;16.338;2023-06-14T23:00:33;99229.84;;;12.28;70.92
66762;BME280;53672;48.176;16.338;2023-06-14T23:05:33;99227.88;;;12.22;71.17
66762;BME280;53672;48.176;16.338;2023-06-14T23:10:34;99227.44;;;12.12;71.53
66762;BME280;53672;48.176;16.338;2023-06-14T23:15:36;99234.56;;;12.07;71.25
66762;BME280;53672;48.176;16.338;2023-06-14T23:20:36;99229.47;;;12.04;71.07
66762;BME280;53672;48.176;16.338;2023-06-14T23:25:37;99226.25;;;12.00;70.89
66762;BME280;53672;48.176;16.338;2023-06-14T23:30:38;99227.31;;;11.99;71.10
66762;BME280;53672;48.176;16.338;2023-06-14T23:35:39;99231.06;;;11.92;71.07
66762;BME280;53672;48.176;16.338;2023-06-14T23:40:39;99227.00;;;11.81;72.07
66762;BME280;53672;48.176;16.338;2023-06-14T23:45:41;99225.25;;;11.73;72.27
66762;BME280;53672;48.176;16.338;2023-06-14T23:50:42;99226.50;;;11.71;72.41
66762;BME280;53672;48.176;16.338;2023-06-14T23:55:42;99226.50;;;11.71;71.91
